createdAt,value
2023-02-24T00:00:26.270Z,26.52
2023-02-24T00:02:53.775Z,26.02
2023-02-24T00:05:23.653Z,24.00
2023-02-24T00:07:50.822Z,22.20
2023-02-24T00:10:19.391Z,27.52
2023-02-24T00:12:47.207Z,24.25
2023-02-24T00:15:17.984Z,24.60
2023-02-24T00:17:45.496Z,23.48
2023-02-24T00:20:13.511Z,22.63
2023-02-24T00:22:41.604Z,22.77
2023-02-24T00:25:09.134Z,28.83
2023-02-24T00:27:36.296Z,22.52
2023-02-24T00:30:05.300Z,28.80
2023-02-24T00:32:32.707Z,24.52
2023-02-24T00:34:59.912Z,24.52
2023-02-24T00:37:27.071Z,26.55
2023-02-24T00:39:58.510Z,22.08
2023-02-24T00:42:25.660Z,25.50
2023-02-24T00:44:54.134Z,28.52
2023-02-24T00:47:22.494Z,25.13
2023-02-24T00:49:50.327Z,26.88
2023-02-24T00:52:18.831Z,24.77
2023-02-24T00:54:47.173Z,24.65
2023-02-24T00:57:17.570Z,29.23
2023-02-24T00:59:47.663Z,18.83
2023-02-24T01:02:15.433Z,26.20
2023-02-24T01:04:44.291Z,24.30
2023-02-24T01:07:12.956Z,27.23
2023-02-24T01:09:41.738Z,27.10
2023-02-24T01:12:31.571Z,25.40
2023-02-24T01:14:58.698Z,24.60
2023-02-24T01:17:25.830Z,23.80
2023-02-24T01:19:53.154Z,24.60
2023-02-24T01:22:20.722Z,24.77
2023-02-24T01:24:48.341Z,27.58
2023-02-24T01:27:18.728Z,25.23
2023-02-24T01:29:47.057Z,23.35
2023-02-24T01:32:17.248Z,26.90
2023-02-24T01:34:45.000Z,27.17
2023-02-24T01:37:16.344Z,23.70
2023-02-24T01:39:44.653Z,23.83
2023-02-24T01:42:16.432Z,24.13
2023-02-24T01:44:43.741Z,26.67
2023-02-24T01:47:11.347Z,25.02
2023-02-24T01:49:43.250Z,22.30
2023-02-24T01:52:10.571Z,25.08
2023-02-24T01:54:42.560Z,25.42
2023-02-24T01:57:10.859Z,22.83
2023-02-24T01:59:38.662Z,25.42
2023-02-24T02:02:08.332Z,23.83
2023-02-24T02:04:38.741Z,21.25
2023-02-24T02:07:06.544Z,22.58
2023-02-24T02:09:34.741Z,21.33
2023-02-24T02:12:01.898Z,23.48
2023-02-24T02:14:31.114Z,21.92
2023-02-24T02:16:58.170Z,22.30
2023-02-24T02:19:28.402Z,20.17
2023-02-24T02:22:17.492Z,21.60
2023-02-24T02:24:44.721Z,24.30
2023-02-24T02:27:21.021Z,22.30
2023-02-24T02:30:06.840Z,22.85
2023-02-24T02:32:53.160Z,19.70
2023-02-24T02:35:27.401Z,20.90
2023-02-24T02:38:15.126Z,24.80
2023-02-24T02:40:49.891Z,19.27
2023-02-24T02:43:35.782Z,24.35
2023-02-24T02:46:14.900Z,25.35
2023-02-24T02:48:49.177Z,27.25
2023-02-24T02:51:22.545Z,24.95
2023-02-24T02:53:59.365Z,22.98
2023-02-24T02:56:30.705Z,23.13
2023-02-24T03:01:28.405Z,24.45
2023-02-24T03:03:57.312Z,23.33
2023-02-24T03:06:26.227Z,23.67
2023-02-24T03:09:12.523Z,21.40
2023-02-24T03:11:41.460Z,23.25
2023-02-24T03:14:12.085Z,20.38
2023-02-24T03:16:42.773Z,25.55
2023-02-24T03:19:11.841Z,23.33
2023-02-24T03:21:45.442Z,23.85
2023-02-24T03:24:15.383Z,21.02
2023-02-24T03:26:44.229Z,23.20
2023-02-24T03:29:24.181Z,30.65
2023-02-24T03:31:54.202Z,24.17
2023-02-24T03:34:31.040Z,23.98
2023-02-24T03:36:58.417Z,27.45
2023-02-24T03:39:25.863Z,26.30
2023-02-24T03:42:01.668Z,25.58
2023-02-24T03:44:29.010Z,23.20
2023-02-24T03:46:56.416Z,21.92
2023-02-24T03:49:25.440Z,23.73
2023-02-24T03:52:12.507Z,28.60
2023-02-24T03:54:55.600Z,21.85
2023-02-24T03:57:25.768Z,19.02
2023-02-24T03:59:57.425Z,21.35
2023-02-24T04:02:26.673Z,23.30
2023-02-24T04:05:00.280Z,21.00
2023-02-24T04:08:06.567Z,23.95
2023-02-24T04:10:54.291Z,24.05
2023-02-24T04:13:35.146Z,22.80
2023-02-24T04:16:28.218Z,29.70
2023-02-24T04:18:58.177Z,23.23
2023-02-24T04:21:27.669Z,25.20
2023-02-24T04:23:55.287Z,21.67
2023-02-24T04:26:24.908Z,22.98
2023-02-24T04:28:52.640Z,21.25
2023-02-24T04:31:21.662Z,27.30
2023-02-24T04:33:53.310Z,19.85
2023-02-24T04:36:21.486Z,19.75
2023-02-24T04:38:49.141Z,22.23
2023-02-24T04:41:23.392Z,24.48
2023-02-24T04:43:50.958Z,22.33
2023-02-24T04:46:19.116Z,19.10
2023-02-24T04:48:46.423Z,21.15
2023-02-24T04:51:13.794Z,21.85
2023-02-24T04:53:41.185Z,20.80
2023-02-24T04:56:09.212Z,19.38
2023-02-24T04:58:38.372Z,19.98
2023-02-24T05:01:10.895Z,21.30
2023-02-24T05:03:42.043Z,22.05
2023-02-24T05:06:14.009Z,25.65
2023-02-24T05:08:41.119Z,19.75
2023-02-24T05:11:08.459Z,22.88
2023-02-24T05:13:37.680Z,23.25
2023-02-24T05:16:07.849Z,23.33
2023-02-24T05:18:38.642Z,19.75
2023-02-24T05:21:26.202Z,24.13
2023-02-24T05:23:54.659Z,20.88
2023-02-24T05:26:25.642Z,18.70
2023-02-24T05:28:53.929Z,19.38
2023-02-24T05:31:23.848Z,22.17
2023-02-24T05:33:54.665Z,21.15
2023-02-24T05:36:22.350Z,21.73
2023-02-24T05:38:56.619Z,19.10
2023-02-24T05:41:23.988Z,23.13
2023-02-24T05:43:55.056Z,21.98
2023-02-24T05:46:29.354Z,19.90
2023-02-24T05:48:57.034Z,18.80
2023-02-24T05:51:25.018Z,17.60
2023-02-24T05:53:55.552Z,20.75
2023-02-24T05:56:27.312Z,22.90
2023-02-24T05:59:01.974Z,18.75
2023-02-24T06:01:30.447Z,20.30
2023-02-24T06:04:05.651Z,20.90
2023-02-24T06:06:36.592Z,22.92
2023-02-24T06:09:10.686Z,20.95
2023-02-24T06:11:38.716Z,22.48
2023-02-24T06:14:08.925Z,21.33
2023-02-24T06:16:36.884Z,21.27
2023-02-24T06:19:05.294Z,23.85
2023-02-24T06:21:32.560Z,21.60
2023-02-24T06:24:00.835Z,20.70
2023-02-24T06:26:33.749Z,19.13
2023-02-24T06:29:01.183Z,22.75
2023-02-24T06:31:28.524Z,21.95
2023-02-24T06:33:57.025Z,22.20
2023-02-24T06:36:24.154Z,17.55
2023-02-24T06:38:52.603Z,23.52
2023-02-24T06:41:20.282Z,20.42
2023-02-24T06:43:48.288Z,21.17
2023-02-24T06:46:16.093Z,21.70
2023-02-24T06:48:43.435Z,26.30
2023-02-24T06:51:13.736Z,23.20
2023-02-24T06:53:44.227Z,21.80
2023-02-24T06:56:15.571Z,18.07
2023-02-24T07:01:15.458Z,24.83
2023-02-24T07:04:02.631Z,26.08
2023-02-24T07:06:34.672Z,21.42
2023-02-24T07:09:05.246Z,22.48
2023-02-24T07:11:32.465Z,21.52
2023-02-24T07:13:59.771Z,24.92
2023-02-24T07:16:28.916Z,26.65
2023-02-24T07:18:56.749Z,19.90
2023-02-24T07:21:25.161Z,19.15
2023-02-24T07:23:58.901Z,22.05
2023-02-24T07:26:27.821Z,21.63
2023-02-24T07:28:56.645Z,25.00
2023-02-24T07:31:25.769Z,27.40
2023-02-24T07:33:55.663Z,20.00
2023-02-24T07:36:23.388Z,18.25
2023-02-24T07:38:55.208Z,21.15
2023-02-24T07:41:23.620Z,25.30
2023-02-24T07:43:51.917Z,21.85
2023-02-24T07:46:24.589Z,24.10
2023-02-24T07:48:55.544Z,24.70
2023-02-24T07:51:24.339Z,24.77
2023-02-24T07:53:52.992Z,21.25
2023-02-24T07:56:21.147Z,20.92
2023-02-24T07:58:51.819Z,23.27
2023-02-24T08:01:27.934Z,22.85
2023-02-24T08:04:01.483Z,22.88
2023-02-24T08:06:39.034Z,20.90
2023-02-24T08:09:30.566Z,22.30
2023-02-24T08:11:57.717Z,22.33
2023-02-24T08:14:25.739Z,22.70
2023-02-24T08:16:59.749Z,28.27
2023-02-24T08:19:39.716Z,23.63
2023-02-24T08:22:20.276Z,18.95
2023-02-24T08:24:53.373Z,23.02
2023-02-24T08:27:21.882Z,26.23
2023-02-24T08:30:00.043Z,21.63
2023-02-24T08:32:27.278Z,23.10
2023-02-24T08:35:02.701Z,20.73
2023-02-24T08:37:40.113Z,21.88
2023-02-24T08:40:31.375Z,26.90
2023-02-24T08:43:19.537Z,23.63
2023-02-24T08:45:50.851Z,25.00
2023-02-24T08:48:38.176Z,23.08
2023-02-24T08:51:18.114Z,24.15
2023-02-24T08:53:46.934Z,22.08
2023-02-24T08:56:23.858Z,28.23
2023-02-24T08:59:05.453Z,21.63
2023-02-24T09:04:05.907Z,19.17
2023-02-24T09:06:45.033Z,24.52
2023-02-24T09:09:21.017Z,19.77
2023-02-24T09:12:10.341Z,21.95
2023-02-24T09:14:37.881Z,24.80
2023-02-24T09:17:07.096Z,18.98
2023-02-24T09:19:47.965Z,20.73
2023-02-24T09:22:29.629Z,22.65
2023-02-24T09:25:17.109Z,20.48
2023-02-24T09:27:56.031Z,22.80
2023-02-24T09:30:37.836Z,21.77
2023-02-24T09:33:17.588Z,23.17
2023-02-24T09:36:10.876Z,22.77
2023-02-24T09:39:01.674Z,22.45
2023-02-24T09:41:53.606Z,26.23
2023-02-24T09:44:24.928Z,21.60
2023-02-24T09:47:00.671Z,24.65
2023-02-24T09:49:39.832Z,21.55
2023-02-24T09:52:17.651Z,24.73
2023-02-24T09:55:11.200Z,21.75
2023-02-24T09:58:03.432Z,22.42
2023-02-24T10:00:33.600Z,22.27
2023-02-24T10:03:19.776Z,24.92
2023-02-24T10:06:12.246Z,24.20
2023-02-24T10:08:42.819Z,23.90
2023-02-24T10:11:12.009Z,22.07
2023-02-24T10:13:46.423Z,23.77
2023-02-24T10:16:23.790Z,23.58
2023-02-24T10:19:11.778Z,24.83
2023-02-24T10:22:00.351Z,20.52
2023-02-24T10:24:48.742Z,24.23
2023-02-24T10:27:23.938Z,23.40
2023-02-24T10:30:10.980Z,19.25
2023-02-24T10:32:51.601Z,24.80
2023-02-24T10:35:20.641Z,25.20
2023-02-24T10:37:49.208Z,26.27
2023-02-24T10:40:45.043Z,22.55
2023-02-24T10:43:17.894Z,22.73
2023-02-24T10:45:45.842Z,24.63
2023-02-24T10:48:40.325Z,22.40
2023-02-24T10:51:30.446Z,22.67
2023-02-24T10:54:34.242Z,26.33
2023-02-24T10:57:18.559Z,27.65
2023-02-24T11:00:02.402Z,24.20
2023-02-24T11:02:30.020Z,25.23
2023-02-24T11:04:58.337Z,25.17
2023-02-24T11:07:33.618Z,25.27
2023-02-24T11:10:26.047Z,28.35
2023-02-24T11:13:13.970Z,23.45
2023-02-24T11:16:13.588Z,22.90
2023-02-24T11:18:41.136Z,31.05
2023-02-24T11:21:11.776Z,22.15
2023-02-24T11:23:44.956Z,24.92
2023-02-24T11:26:16.913Z,23.23
2023-02-24T11:28:56.291Z,22.63
2023-02-24T11:31:23.964Z,22.90
2023-02-24T11:34:06.335Z,25.02
2023-02-24T11:36:38.260Z,23.08
2023-02-24T11:39:25.677Z,25.70
2023-02-24T11:41:56.124Z,23.35
2023-02-24T11:44:36.188Z,21.38
2023-02-24T11:47:07.381Z,22.98
2023-02-24T11:49:37.335Z,24.05
2023-02-24T11:52:05.362Z,26.77
2023-02-24T11:54:41.800Z,24.63
2023-02-24T11:57:13.582Z,22.23
2023-02-24T11:59:42.485Z,24.23
2023-02-24T12:02:29.836Z,25.80
2023-02-24T12:05:03.470Z,24.30
2023-02-24T12:07:45.133Z,20.23
2023-02-24T12:10:21.398Z,19.13
2023-02-24T12:13:09.820Z,23.33
2023-02-24T12:15:44.128Z,18.65
2023-02-24T12:18:13.664Z,19.45
2023-02-24T12:20:43.991Z,24.80
2023-02-24T12:23:15.915Z,25.25
2023-02-24T12:26:08.985Z,22.65
2023-02-24T12:28:43.650Z,24.48
2023-02-24T12:31:26.254Z,25.80
2023-02-24T12:33:56.556Z,27.30
2023-02-24T12:36:45.486Z,26.30
2023-02-24T12:39:22.904Z,24.67
2023-02-24T12:41:55.838Z,22.83
2023-02-24T12:44:27.921Z,24.10
2023-02-24T12:47:04.136Z,22.48
2023-02-24T12:49:34.424Z,25.45
2023-02-24T12:52:04.645Z,22.90
2023-02-24T12:54:34.851Z,28.33
2023-02-24T12:57:17.011Z,27.77
2023-02-24T12:59:44.379Z,26.02
2023-02-24T13:02:20.681Z,25.95
2023-02-24T13:05:10.607Z,23.25
2023-02-24T13:07:46.217Z,27.15
2023-02-24T13:10:16.336Z,25.63
2023-02-24T13:12:43.418Z,30.85
2023-02-24T13:15:19.177Z,30.60
2023-02-24T13:17:48.028Z,26.23
2023-02-24T13:20:26.586Z,26.15
2023-02-24T13:22:53.735Z,25.10
2023-02-24T13:25:23.492Z,30.60
2023-02-24T13:27:59.980Z,25.80
2023-02-24T13:30:29.745Z,26.08
2023-02-24T13:33:01.426Z,30.55
2023-02-24T13:35:28.477Z,26.35
2023-02-24T13:37:55.585Z,23.10
2023-02-24T13:40:26.565Z,29.02
2023-02-24T13:42:56.876Z,28.60
2023-02-24T13:45:25.957Z,33.15
2023-02-24T13:48:16.290Z,26.90
2023-02-24T13:50:49.619Z,23.52
2023-02-24T13:53:16.773Z,33.65
2023-02-24T13:55:49.966Z,33.65
2023-02-24T13:58:26.185Z,28.65
2023-02-24T14:00:59.362Z,33.13
2023-02-24T14:03:28.076Z,30.80
2023-02-24T14:05:55.371Z,30.23
2023-02-24T14:08:24.370Z,30.25
2023-02-24T14:10:57.740Z,37.13
2023-02-24T14:13:33.902Z,33.42
2023-02-24T14:16:08.611Z,32.03
2023-02-24T14:18:36.682Z,31.88
2023-02-24T14:21:04.244Z,35.90
2023-02-24T14:23:35.279Z,41.70
2023-02-24T14:26:03.815Z,29.63
2023-02-24T14:28:32.851Z,29.65
2023-02-24T14:31:01.308Z,30.80
2023-02-24T14:33:30.843Z,45.88
2023-02-24T14:35:58.187Z,34.75
2023-02-24T14:38:29.649Z,42.72
2023-02-24T14:40:57.003Z,45.08
2023-02-24T14:43:24.144Z,47.58
2023-02-24T14:45:51.978Z,31.77
2023-02-24T14:48:24.648Z,35.58
2023-02-24T14:50:51.925Z,31.52
2023-02-24T14:53:21.246Z,31.88
2023-02-24T14:55:51.063Z,29.55
2023-02-24T14:58:24.037Z,31.60
2023-02-24T15:00:56.364Z,27.90
2023-02-24T15:03:26.765Z,28.15
2023-02-24T15:05:55.418Z,30.10
2023-02-24T15:08:28.569Z,30.77
2023-02-24T15:10:56.078Z,32.25
2023-02-24T15:13:28.766Z,29.45
2023-02-24T15:15:57.103Z,35.35
2023-02-24T15:18:29.782Z,27.63
2023-02-24T15:21:03.805Z,26.42
2023-02-24T15:23:34.060Z,26.15
2023-02-24T15:26:01.627Z,29.40
2023-02-24T15:28:33.450Z,27.58
2023-02-24T15:31:07.477Z,28.90
2023-02-24T15:33:40.495Z,25.95
2023-02-24T15:38:40.070Z,25.38
2023-02-24T15:41:08.475Z,29.73
2023-02-24T15:43:37.610Z,31.75
2023-02-24T15:46:20.130Z,31.45
2023-02-24T15:48:48.378Z,33.38
2023-02-24T15:51:32.054Z,28.67
2023-02-24T15:54:01.238Z,35.78
2023-02-24T15:56:29.012Z,34.33
2023-02-24T15:58:56.195Z,31.50
2023-02-24T16:01:23.412Z,30.17
2023-02-24T16:03:50.618Z,29.30
2023-02-24T16:06:22.569Z,26.40
2023-02-24T16:08:51.987Z,26.30
2023-02-24T16:11:22.722Z,34.47
2023-02-24T16:13:54.584Z,42.40
2023-02-24T16:16:22.592Z,35.95
2023-02-24T16:18:49.919Z,38.38
2023-02-24T16:21:17.640Z,40.97
2023-02-24T16:23:44.757Z,31.08
2023-02-24T16:26:19.366Z,29.58
2023-02-24T16:28:49.278Z,26.17
2023-02-24T16:31:17.303Z,31.20
2023-02-24T16:33:54.158Z,33.45
2023-02-24T16:36:24.084Z,30.80
2023-02-24T16:38:51.804Z,29.75
2023-02-24T16:41:19.302Z,35.88
2023-02-24T16:43:46.452Z,40.15
2023-02-24T16:46:18.593Z,34.45
2023-02-24T16:48:47.377Z,35.42
2023-02-24T16:51:14.659Z,31.75
2023-02-24T16:53:41.822Z,29.67
2023-02-24T16:56:09.369Z,25.27
2023-02-24T16:58:36.607Z,34.17
2023-02-24T17:01:05.168Z,29.85
2023-02-24T17:03:37.041Z,27.85
2023-02-24T17:06:04.266Z,30.48
2023-02-24T17:08:31.889Z,26.58
2023-02-24T17:10:59.138Z,26.33
2023-02-24T17:13:26.348Z,27.55
2023-02-24T17:15:57.427Z,25.05
2023-02-24T17:18:25.237Z,23.58
2023-02-24T17:20:52.793Z,23.65
2023-02-24T17:23:20.137Z,24.17
2023-02-24T17:25:49.866Z,21.77
2023-02-24T17:28:16.955Z,29.90
2023-02-24T17:30:44.246Z,31.00
2023-02-24T17:33:15.539Z,29.40
2023-02-24T17:35:43.242Z,34.15
2023-02-24T17:38:13.524Z,34.88
2023-02-24T17:40:44.063Z,41.90
2023-02-24T17:43:13.065Z,27.67
2023-02-24T17:45:44.967Z,27.00
2023-02-24T17:48:12.938Z,26.48
2023-02-24T17:50:43.739Z,26.80
2023-02-24T17:53:10.945Z,31.88
2023-02-24T17:55:38.333Z,37.05
2023-02-24T17:58:05.551Z,34.20
2023-02-24T18:00:32.777Z,35.63
2023-02-24T18:03:02.272Z,37.97
2023-02-24T18:05:30.417Z,28.92
2023-02-24T18:08:00.599Z,29.95
2023-02-24T18:10:27.857Z,23.55
2023-02-24T18:12:55.011Z,24.90
2023-02-24T18:15:22.326Z,28.60
2023-02-24T18:17:49.458Z,24.80
2023-02-24T18:20:16.546Z,18.95
2023-02-24T18:22:43.982Z,22.58
2023-02-24T18:25:11.278Z,23.48
2023-02-24T18:27:38.408Z,20.13
2023-02-24T18:30:06.873Z,22.35
2023-02-24T18:32:34.525Z,20.95
2023-02-24T18:35:01.750Z,22.48
2023-02-24T18:37:28.887Z,24.00
2023-02-24T18:39:55.962Z,23.23
2023-02-24T18:42:23.137Z,24.67
2023-02-24T18:44:50.297Z,24.60
2023-02-24T18:47:17.398Z,24.20
2023-02-24T18:49:44.511Z,24.45
2023-02-24T18:52:13.022Z,24.27
2023-02-24T18:54:40.198Z,21.85
2023-02-24T18:57:07.458Z,20.80
2023-02-24T18:59:34.622Z,23.75
2023-02-24T19:02:04.447Z,25.73
2023-02-24T19:04:31.529Z,24.42
2023-02-24T19:06:58.657Z,25.55
2023-02-24T19:09:25.786Z,28.63
2023-02-24T19:11:54.128Z,26.17
2023-02-24T19:14:21.517Z,27.33
2023-02-24T19:16:48.614Z,31.85
2023-02-24T19:19:16.389Z,28.95
2023-02-24T19:21:45.542Z,31.38
2023-02-24T19:24:13.876Z,30.42
2023-02-24T19:26:42.731Z,27.48
2023-02-24T19:29:10.477Z,26.88
2023-02-24T19:31:38.277Z,24.98
2023-02-24T19:34:10.991Z,30.75
2023-02-24T19:36:38.542Z,25.77
2023-02-24T19:39:06.235Z,27.77
2023-02-24T19:41:33.581Z,25.27
2023-02-24T19:44:01.024Z,28.70
2023-02-24T19:46:32.891Z,26.92
2023-02-24T19:49:00.196Z,29.25
2023-02-24T19:51:27.624Z,27.88
2023-02-24T19:53:55.418Z,30.23
2023-02-24T19:56:26.537Z,28.45
2023-02-24T19:58:54.647Z,26.70
2023-02-24T20:01:22.510Z,24.75
2023-02-24T20:03:50.458Z,27.83
2023-02-24T20:06:21.129Z,28.70
2023-02-24T20:08:48.685Z,27.10
2023-02-24T20:11:15.940Z,28.45
2023-02-24T20:13:43.047Z,29.55
2023-02-24T20:16:11.836Z,27.40
2023-02-24T20:18:39.651Z,28.75
2023-02-24T20:21:07.034Z,26.27
2023-02-24T20:23:34.137Z,25.80
2023-02-24T20:26:01.782Z,22.73
2023-02-24T20:28:29.231Z,28.00
2023-02-24T20:30:57.237Z,26.73
2023-02-24T20:33:25.111Z,32.15
2023-02-24T20:35:52.427Z,21.23
2023-02-24T20:38:19.549Z,25.85
2023-02-24T20:40:47.007Z,27.48
2023-02-24T20:43:14.120Z,25.33
2023-02-24T20:45:41.284Z,23.55
2023-02-24T20:48:09.042Z,25.45
2023-02-24T20:50:36.258Z,28.48
2023-02-24T20:53:04.210Z,25.38
2023-02-24T20:55:31.529Z,26.15
2023-02-24T20:57:58.638Z,24.75
2023-02-24T21:00:26.094Z,27.30
2023-02-24T21:02:53.736Z,24.58
2023-02-24T21:05:22.160Z,24.30
2023-02-24T21:07:50.173Z,26.33
2023-02-24T21:10:17.939Z,29.67
2023-02-24T21:12:45.145Z,22.85
2023-02-24T21:15:12.457Z,31.00
2023-02-24T21:17:39.946Z,29.25
2023-02-24T21:20:11.109Z,26.20
2023-02-24T21:22:41.946Z,24.25
2023-02-24T21:25:13.103Z,25.85
2023-02-24T21:27:40.295Z,26.20
2023-02-24T21:30:07.975Z,25.95
2023-02-24T21:32:35.310Z,24.55
2023-02-24T21:35:02.644Z,28.73
2023-02-24T21:37:29.984Z,26.00
2023-02-24T21:39:57.244Z,24.95
2023-02-24T21:42:24.420Z,26.48
2023-02-24T21:44:51.868Z,31.08
2023-02-24T21:47:20.424Z,31.15
2023-02-24T21:49:47.580Z,21.38
2023-02-24T21:52:14.740Z,25.80
2023-02-24T21:54:42.309Z,28.17
2023-02-24T21:57:09.466Z,26.48
2023-02-24T21:59:36.670Z,27.70
2023-02-24T22:02:03.796Z,28.85
2023-02-24T22:04:30.927Z,27.13
2023-02-24T22:06:58.081Z,28.83
2023-02-24T22:09:25.537Z,26.45
2023-02-24T22:11:52.831Z,28.55
2023-02-24T22:14:20.522Z,26.65
2023-02-24T22:16:47.678Z,27.02
2023-02-24T22:19:15.228Z,30.02
2023-02-24T22:21:43.217Z,29.50
2023-02-24T22:24:12.728Z,33.33
2023-02-24T22:26:40.233Z,25.85
2023-02-24T22:29:07.671Z,26.70
2023-02-24T22:31:36.506Z,30.50
2023-02-24T22:34:04.431Z,27.80
2023-02-24T22:36:33.693Z,28.98
2023-02-24T22:39:01.732Z,29.27
2023-02-24T22:41:31.307Z,28.63
2023-02-24T22:43:59.031Z,28.70
2023-02-24T22:46:27.562Z,29.77
2023-02-24T22:48:55.477Z,31.75
2023-02-24T22:51:23.235Z,31.10
2023-02-24T22:53:50.608Z,23.95
2023-02-24T22:56:19.346Z,31.48
2023-02-24T22:58:46.826Z,28.60
2023-02-24T23:01:18.748Z,34.22
2023-02-24T23:03:46.390Z,33.30
2023-02-24T23:06:14.712Z,32.78
2023-02-24T23:08:43.074Z,33.53
2023-02-24T23:11:15.264Z,35.50
2023-02-24T23:13:44.725Z,35.63
2023-02-24T23:16:13.999Z,34.17
2023-02-24T23:18:48.466Z,38.30
2023-02-24T23:21:16.168Z,33.30
2023-02-24T23:23:43.451Z,35.95
2023-02-24T23:26:11.432Z,31.70
2023-02-24T23:28:39.115Z,32.10
2023-02-24T23:31:07.153Z,33.83
2023-02-24T23:33:34.598Z,34.42
2023-02-24T23:36:08.263Z,38.83
2023-02-24T23:38:35.397Z,40.55
2023-02-24T23:41:07.844Z,38.47
2023-02-24T23:43:34.951Z,39.78
2023-02-24T23:46:09.378Z,41.47
2023-02-24T23:48:37.213Z,38.38
2023-02-24T23:51:07.928Z,39.70
2023-02-24T23:53:38.898Z,38.75
2023-02-24T23:56:08.743Z,35.97
2023-02-24T23:58:37.318Z,36.60
